Wausau, FL

11:00 AM CDT on March 27, 2015 (GMT -0500)
Silver Lake Road | | Change Station
CLOSE
Current Station
Personal Weather Station
Location: Fountain, FL
Elevation: 178 ft
Nearby Weather Stations

Elev 178 ft 30.48 °N, 85.47 °W | Updated 6 seconds ago

Overcast
Overcast
58.5 °F
Feels Like 58.5 °F
N
10.1
Wind Variable Wind from NW
Gusts 10.1 mph

Today
High -- | Low -- °F
--% Chance of Precip.
Yesterday
High -- | Low -- °F
Precip. -- in
6:37 AM 6:58 PM
First Quarter, 53% visible
Pressure 29.90 in
Visibility 10.0 miles
Clouds Overcast 1400 ft
Dew Point 52 °F
Humidity 80%
Rainfall 0.00 in
Snow Depth Not available.
UV 3 out of 12
Pollen 7.70 out of 12
Air Quality Not available.
Flu Activity Not available.
METAR K1J0 271558Z AUTO VRB04KT 10SM OVC014 12/09 A2995 RMK AO2 SLP124 T01220094 $

More Conditions Fewer Conditions

Pressure 29.90 in
Visibility 10.0 miles
Clouds Overcast 1400 ft
Dew Point 52 °F
Humidity 80%
Rainfall 0.00 in
Snow Depth Not available.
UV 3 out of 12
Pollen 7.70 out of 12
Air Quality Not available.
Flu Activity Not available.
METAR K1J0 271558Z AUTO VRB04KT 10SM OVC014 12/09 A2995 RMK AO2 SLP124 T01220094 $

More Conditions Fewer Conditions

10-Day Weather Forecast

Almanac

Astronomy

Mar. 27, 2015 Rise Set
Actual Time
Civil Twilight
Nautical Twilight
Astronomical Twilight
Moon
Length of Visible Light
Length of Day
Tomorrow will be .
, % of the Moon is Illuminated

Today's Extremes

State Highs State Lows

Community

WunderPhotos

Upload Photos

1,808,766 photos uploaded!

WunderBlogs® & News

Nearby

Air Quality

  Air Quality AQ Index Pollutant
Not available.

Snow Depth

Station Depth Elevation

Earthquake Activity

City Distance Mag. Time & Date
Minimum magnitude displayed is 2.5.

Coastal Water Temperatures

Place Temperature

Stations

Nearby Weather Stations

Station Location Temp. Windchill Dew Point Humidity Wind Precip. Elev Updated Type